Time;durP1;ratioP1;P1;durP2;ratioP2;P2;SDS_P1;SDS_P2;PMS_P1;PMS_P2;Temp;Humidity;BMP_temperature;BMP_pressure;BME280_temperature;BME280_humidity;BME280_pressure;Samples;Min_cycle;Max_cycle;Signal;HPM_P1;HPM_P2
2021/05/16 00:00:17;;;;;;;2.63;1.00;;;11.70;99.90;;;;;;5073273;28;20255;-65
2021/05/16 00:02:43;;;;;;;1.70;0.90;;;11.80;99.90;;;;;;5073356;28;20605;-65
2021/05/16 00:05:13;;;;;;;2.37;0.80;;;11.80;99.90;;;;;;5073061;28;20223;-64
2021/05/16 00:07:40;;;;;;;2.93;0.83;;;11.90;99.90;;;;;;5072838;28;20205;-65
2021/05/16 00:10:09;;;;;;;2.17;0.87;;;12.00;99.90;;;;;;5072883;28;20208;-65
2021/05/16 00:12:36;;;;;;;2.07;1.00;;;12.00;99.90;;;;;;5073183;28;20251;-64
2021/05/16 00:15:04;;;;;;;1.57;0.70;;;12.10;99.90;;;;;;5072896;28;20608;-65
2021/05/16 00:17:31;;;;;;;2.50;0.83;;;12.00;99.90;;;;;;5073103;28;20205;-65
2021/05/16 00:19:57;;;;;;;1.47;0.70;;;11.90;99.90;;;;;;5073173;28;20201;-65
2021/05/16 00:22:24;;;;;;;2.27;0.93;;;11.90;99.90;;;;;;5072531;28;20200;-65
2021/05/16 00:24:50;;;;;;;3.87;0.90;;;11.90;99.90;;;;;;5072385;28;20731;-64
2021/05/16 00:27:16;;;;;;;3.07;0.70;;;11.80;99.90;;;;;;5072416;28;20654;-64
2021/05/16 00:29:42;;;;;;;2.67;0.70;;;11.70;99.90;;;;;;5072439;28;20219;-64
2021/05/16 00:32:09;;;;;;;1.27;0.70;;;11.70;99.90;;;;;;5072378;28;20224;-64
2021/05/16 00:34:36;;;;;;;2.30;0.80;;;11.80;99.90;;;;;;5072589;28;20271;-65
2021/05/16 00:37:02;;;;;;;2.70;1.40;;;11.80;99.90;;;;;;5072361;28;20338;-64
2021/05/16 00:39:28;;;;;;;1.43;1.00;;;11.90;99.90;;;;;;5072305;28;20212;-64
2021/05/16 00:41:54;;;;;;;4.03;0.80;;;11.90;99.90;;;;;;5072406;28;20205;-66
2021/05/16 00:44:22;;;;;;;1.30;0.80;;;11.90;99.90;;;;;;5072241;28;20315;-64
2021/05/16 00:46:48;;;;;;;1.80;0.73;;;12.10;99.90;;;;;;5072403;28;20258;-65
2021/05/16 00:49:16;;;;;;;1.70;0.80;;;12.10;99.90;;;;;;5072231;28;20219;-64
2021/05/16 00:51:43;;;;;;;3.03;0.67;;;12.20;99.90;;;;;;5072166;28;20233;-64
2021/05/16 00:54:10;;;;;;;2.57;0.90;;;12.30;99.90;;;;;;5071786;28;20602;-64
2021/05/16 00:56:37;;;;;;;2.07;0.70;;;12.30;99.90;;;;;;5072250;28;20208;-64
2021/05/16 00:59:04;;;;;;;1.63;0.80;;;12.00;99.90;;;;;;5072105;28;20200;-63
2021/05/16 01:01:30;;;;;;;2.53;0.77;;;12.00;99.90;;;;;;5071485;28;20235;-63
2021/05/16 01:03:56;;;;;;;1.60;0.57;;;12.20;99.90;;;;;;5071759;28;20221;-64
2021/05/16 01:06:22;;;;;;;1.37;0.77;;;12.20;99.90;;;;;;5071964;28;20205;-64
2021/05/16 01:08:50;;;;;;;3.27;1.20;;;12.20;99.90;;;;;;5071890;28;20236;-64
2021/05/16 01:11:18;;;;;;;1.37;0.83;;;12.30;99.90;;;;;;5071864;28;20228;-64
2021/05/16 01:13:48;;;;;;;2.50;0.77;;;12.50;99.90;;;;;;5071850;28;20233;-64
2021/05/16 01:16:15;;;;;;;1.40;0.60;;;12.50;99.90;;;;;;5071800;28;20300;-64
2021/05/16 01:18:41;;;;;;;1.83;0.70;;;12.50;99.90;;;;;;5071626;28;20258;-65
2021/05/16 01:21:08;;;;;;;1.87;0.70;;;12.60;99.90;;;;;;5071833;28;20201;-64
2021/05/16 01:23:44;;;;;;;2.00;0.70;;;12.50;99.90;;;;;;5071722;28;20229;-64
2021/05/16 01:26:11;;;;;;;1.97;0.70;;;12.60;99.90;;;;;;5071577;28;20200;-64
2021/05/16 01:28:37;;;;;;;3.80;1.07;;;12.70;99.90;;;;;;5071325;28;20208;-64
2021/05/16 01:31:04;;;;;;;2.77;1.00;;;12.70;99.90;;;;;;5071210;28;20225;-63
2021/05/16 01:33:31;;;;;;;3.23;1.00;;;12.80;99.90;;;;;;5070832;28;20724;-63
2021/05/16 01:35:58;;;;;;;2.57;1.03;;;12.80;99.90;;;;;;5071409;28;20201;-64
2021/05/16 01:38:24;;;;;;;4.20;1.60;;;12.90;99.90;;;;;;5071028;28;20688;-63
2021/05/16 01:40:52;;;;;;;4.07;1.60;;;12.90;99.90;;;;;;5071378;28;20452;-64
2021/05/16 01:43:18;;;;;;;3.47;1.30;;;13.00;99.90;;;;;;5071075;28;20225;-64
2021/05/16 01:45:45;;;;;;;3.63;1.40;;;13.00;99.90;;;;;;5070898;28;20201;-64
2021/05/16 01:48:11;;;;;;;2.63;1.30;;;13.10;99.90;;;;;;5071257;28;20209;-64
2021/05/16 01:50:39;;;;;;;3.37;1.33;;;13.10;99.90;;;;;;5071067;28;20204;-66
2021/05/16 01:53:08;;;;;;;5.00;1.50;;;13.10;99.90;;;;;;5071026;28;20236;-64
2021/05/16 01:55:34;;;;;;;3.80;1.13;;;13.10;99.90;;;;;;5070862;28;20668;-64
2021/05/16 01:58:02;;;;;;;2.73;1.27;;;13.10;99.90;;;;;;5071352;28;20201;-63
2021/05/16 02:00:31;;;;;;;3.07;1.20;;;13.10;99.90;;;;;;5070998;28;20209;-64
2021/05/16 02:02:57;;;;;;;4.73;1.20;;;13.20;99.90;;;;;;5071181;28;20228;-63
2021/05/16 02:05:24;;;;;;;2.80;1.40;;;13.10;99.90;;;;;;5071086;28;20212;-63
2021/05/16 02:07:52;;;;;;;2.73;0.97;;;13.10;99.90;;;;;;5070822;28;20212;-64
2021/05/16 02:10:20;;;;;;;3.53;1.40;;;13.10;99.90;;;;;;5070910;28;20215;-64
2021/05/16 02:12:46;;;;;;;4.07;1.20;;;13.20;99.90;;;;;;5070046;28;20240;-63
2021/05/16 02:15:14;;;;;;;3.33;1.00;;;13.20;99.90;;;;;;5070400;28;20208;-64
2021/05/16 02:17:42;;;;;;;3.57;1.03;;;13.20;99.90;;;;;;5070766;28;20201;-64
2021/05/16 02:20:10;;;;;;;4.00;1.07;;;13.20;99.90;;;;;;5070876;28;20201;-63
2021/05/16 02:22:36;;;;;;;3.57;1.10;;;13.20;99.90;;;;;;5070530;28;20209;-63
2021/05/16 02:25:04;;;;;;;2.17;1.07;;;13.10;99.90;;;;;;5070507;28;20265;-64
2021/05/16 02:27:30;;;;;;;4.60;1.40;;;13.20;99.90;;;;;;5070455;28;20213;-63
2021/05/16 02:29:56;;;;;;;2.20;0.90;;;13.10;99.90;;;;;;5070647;28;20215;-62
2021/05/16 02:32:23;;;;;;;4.93;1.20;;;13.20;99.90;;;;;;5070532;28;20657;-63
2021/05/16 02:34:49;;;;;;;2.10;1.30;;;13.10;99.90;;;;;;5070276;28;20223;-64
2021/05/16 02:37:15;;;;;;;2.83;1.00;;;13.20;99.90;;;;;;5070640;28;20209;-62
2021/05/16 02:39:42;;;;;;;3.00;1.13;;;13.20;99.90;;;;;;5070280;28;20204;-62
2021/05/16 02:42:08;;;;;;;3.13;1.17;;;13.20;99.90;;;;;;5070390;28;20299;-64
2021/05/16 02:44:35;;;;;;;2.23;1.00;;;13.20;99.90;;;;;;5070408;28;20225;-62
2021/05/16 02:47:02;;;;;;;2.10;0.83;;;13.20;99.90;;;;;;5070562;28;20205;-64
2021/05/16 02:49:29;;;;;;;3.83;1.20;;;13.20;99.90;;;;;;5070723;28;20653;-64
2021/05/16 02:51:55;;;;;;;6.73;1.73;;;13.10;99.90;;;;;;5070567;28;20229;-65
2021/05/16 02:54:22;;;;;;;6.30;1.10;;;13.10;99.90;;;;;;5070476;28;20421;-64
2021/05/16 02:56:48;;;;;;;3.60;1.17;;;13.00;99.90;;;;;;5071181;28;20228;-63
2021/05/16 02:59:14;;;;;;;3.70;1.50;;;13.10;99.90;;;;;;5070625;28;20648;-65
2021/05/16 03:01:41;;;;;;;4.43;0.97;;;13.00;99.90;;;;;;5070231;28;20205;-66
2021/05/16 03:04:07;;;;;;;5.03;1.00;;;13.00;99.90;;;;;;5070167;28;20224;-66
2021/05/16 03:06:34;;;;;;;5.33;1.43;;;12.80;99.90;;;;;;5070418;28;20279;-66
2021/05/16 03:09:00;;;;;;;2.70;1.10;;;12.80;99.90;;;;;;5070839;28;20209;-65
2021/05/16 03:11:27;;;;;;;2.87;1.03;;;12.90;99.90;;;;;;5070594;28;20221;-64
2021/05/16 03:13:54;;;;;;;3.20;0.97;;;12.90;99.90;;;;;;5070191;28;20229;-64
2021/05/16 03:16:20;;;;;;;2.83;1.00;;;12.90;99.90;;;;;;5070379;28;20214;-63
2021/05/16 03:18:47;;;;;;;4.33;1.10;;;12.90;99.90;;;;;;5070467;28;20205;-64
2021/05/16 03:21:13;;;;;;;3.80;1.43;;;12.90;99.90;;;;;;5070545;28;20200;-65
2021/05/16 03:23:40;;;;;;;2.17;1.13;;;12.90;99.90;;;;;;5070068;28;20246;-65
2021/05/16 03:26:06;;;;;;;3.93;1.10;;;12.90;99.90;;;;;;5073889;28;20559;-65
2021/05/16 03:28:32;;;;;;;2.83;0.80;;;12.80;99.90;;;;;;5074343;28;20236;-65
2021/05/16 03:30:59;;;;;;;2.70;1.10;;;12.80;99.90;;;;;;5074010;28;20228;-64
2021/05/16 03:33:25;;;;;;;1.67;0.83;;;12.80;99.90;;;;;;5097229;22;20229;-66
2021/05/16 03:35:52;;;;;;;5.80;1.37;;;12.90;99.90;;;;;;5075517;28;20649;-64
2021/05/16 03:38:19;;;;;;;1.63;0.80;;;12.80;99.90;;;;;;5074863;28;20201;-64
2021/05/16 03:40:46;;;;;;;2.83;0.93;;;12.80;99.90;;;;;;5075110;28;20208;-64
2021/05/16 03:43:13;;;;;;;2.70;1.20;;;12.80;99.90;;;;;;5074817;28;20236;-64
2021/05/16 03:45:39;;;;;;;2.60;1.07;;;12.80;99.90;;;;;;5074662;28;20207;-64
2021/05/16 03:48:06;;;;;;;2.57;1.10;;;12.70;99.90;;;;;;5075294;28;20223;-64
2021/05/16 03:50:33;;;;;;;2.63;0.90;;;12.70;99.90;;;;;;5074719;28;20664;-65
2021/05/16 03:52:59;;;;;;;2.53;1.00;;;12.70;99.90;;;;;;5074718;28;20225;-65
2021/05/16 03:55:25;;;;;;;3.73;1.50;;;12.70;99.90;;;;;;5074289;28;20728;-65
2021/05/16 03:57:52;;;;;;;3.17;1.03;;;12.60;99.90;;;;;;5075001;28;20209;-65
2021/05/16 04:00:20;;;;;;;3.23;1.33;;;12.70;99.90;;;;;;5075105;28;20212;-65
2021/05/16 04:02:47;;;;;;;2.77;1.20;;;12.70;99.90;;;;;;5074735;28;20231;-65
2021/05/16 04:05:15;;;;;;;2.17;1.23;;;12.80;99.90;;;;;;5074303;28;20296;-65
2021/05/16 04:07:43;;;;;;;3.20;1.10;;;12.80;99.90;;;;;;5075408;28;20208;-65
2021/05/16 04:10:10;;;;;;;3.07;1.23;;;12.90;99.90;;;;;;5075549;28;20216;-65
2021/05/16 04:12:36;;;;;;;4.43;1.70;;;12.70;99.90;;;;;;5076115;28;20228;-65
2021/05/16 04:15:05;;;;;;;4.23;1.60;;;12.70;99.90;;;;;;5076295;28;20236;-65
2021/05/16 04:17:32;;;;;;;4.37;1.73;;;12.80;99.90;;;;;;5076839;28;20201;-64
2021/05/16 04:19:58;;;;;;;3.73;1.50;;;12.90;99.90;;;;;;5077430;28;20205;-65
2021/05/16 04:22:24;;;;;;;2.40;1.30;;;12.90;99.90;;;;;;5076728;28;20201;-65
2021/05/16 04:24:52;;;;;;;5.07;1.67;;;12.90;99.90;;;;;;5075741;28;20233;-65
2021/05/16 04:27:19;;;;;;;5.60;1.97;;;13.00;99.90;;;;;;5074644;28;20657;-65
2021/05/16 04:29:45;;;;;;;3.07;1.47;;;12.90;99.90;;;;;;5074817;28;20216;-65
2021/05/16 04:32:12;;;;;;;3.70;1.30;;;13.00;99.90;;;;;;5074486;28;20228;-65
2021/05/16 04:34:38;;;;;;;3.20;1.33;;;13.10;99.90;;;;;;5074845;28;20233;-65
2021/05/16 04:37:04;;;;;;;2.50;1.33;;;13.20;99.90;;;;;;5072857;28;20193;-65
2021/05/16 04:39:31;;;;;;;3.63;1.33;;;13.20;99.90;;;;;;5073959;28;20285;-64
2021/05/16 04:41:57;;;;;;;4.87;1.50;;;13.20;99.90;;;;;;5074247;28;20200;-65
2021/05/16 04:44:23;;;;;;;4.57;2.07;;;13.10;99.90;;;;;;5073840;28;20311;-65
2021/05/16 04:46:49;;;;;;;3.20;1.63;;;13.20;99.90;;;;;;5073466;28;20205;-64
2021/05/16 04:49:16;;;;;;;4.60;2.17;;;13.10;99.90;;;;;;5072957;28;20228;-65
2021/05/16 04:51:43;;;;;;;3.23;1.80;;;13.20;99.90;;;;;;5072973;28;20221;-65
2021/05/16 04:54:09;;;;;;;2.93;1.40;;;13.20;99.90;;;;;;5073148;28;20221;-65
2021/05/16 04:56:35;;;;;;;2.83;1.10;;;13.20;99.90;;;;;;5072591;28;20209;-65
2021/05/16 04:59:02;;;;;;;2.23;1.10;;;13.20;99.90;;;;;;5073106;28;20205;-64
2021/05/16 05:01:28;;;;;;;2.43;1.13;;;13.20;99.90;;;;;;5072528;28;20291;-66
2021/05/16 05:03:55;;;;;;;5.17;1.40;;;13.40;99.90;;;;;;5072411;28;20237;-64
2021/05/16 05:06:23;;;;;;;2.27;1.20;;;13.50;99.90;;;;;;5072643;28;20200;-67
2021/05/16 05:08:49;;;;;;;2.00;1.20;;;13.60;99.90;;;;;;5072524;28;20564;-64
2021/05/16 05:11:15;;;;;;;2.10;1.30;;;13.40;99.90;;;;;;5072302;28;20232;-64
2021/05/16 05:13:42;;;;;;;4.77;1.60;;;13.30;99.90;;;;;;5072133;28;20228;-64
2021/05/16 05:16:08;;;;;;;3.40;1.00;;;13.40;99.90;;;;;;5072239;28;20209;-64
2021/05/16 05:18:34;;;;;;;1.70;0.87;;;13.20;99.90;;;;;;5072489;28;20209;-65
2021/05/16 05:21:00;;;;;;;3.83;2.47;;;13.50;99.90;;;;;;5072256;28;20677;-64
2021/05/16 05:23:28;;;;;;;2.97;1.00;;;13.80;99.90;;;;;;5072377;28;20233;-64
2021/05/16 05:25:56;;;;;;;2.33;1.37;;;14.10;99.90;;;;;;5072361;28;20209;-64
2021/05/16 05:28:22;;;;;;;3.60;1.60;;;14.70;99.90;;;;;;5072350;28;20213;-67
2021/05/16 05:30:49;;;;;;;4.00;1.17;;;16.00;99.90;;;;;;5072624;28;20204;-67
2021/05/16 05:33:15;;;;;;;3.20;1.40;;;17.00;99.90;;;;;;5072243;28;20225;-67
2021/05/16 05:35:41;;;;;;;2.67;1.60;;;17.90;99.90;;;;;;5072097;28;20209;-67
2021/05/16 05:38:07;;;;;;;2.60;1.20;;;18.20;99.90;;;;;;5072436;28;20557;-66
2021/05/16 05:40:34;;;;;;;2.73;1.30;;;18.70;98.50;;;;;;5072049;28;20672;-65
2021/05/16 05:43:01;;;;;;;2.23;1.33;;;18.90;97.80;;;;;;5072171;28;20475;-64
2021/05/16 05:45:27;;;;;;;1.70;1.10;;;18.90;97.00;;;;;;5071593;28;20688;-64
2021/05/16 05:47:54;;;;;;;2.73;1.50;;;18.70;96.80;;;;;;5072068;28;20649;-65
2021/05/16 05:50:20;;;;;;;2.00;0.87;;;18.30;97.00;;;;;;5072229;28;20215;-65
2021/05/16 05:52:46;;;;;;;1.93;0.60;;;17.90;97.10;;;;;;5071866;28;20239;-65
2021/05/16 05:55:13;;;;;;;2.53;1.30;;;17.60;97.50;;;;;;5072001;28;20204;-67
2021/05/16 05:57:40;;;;;;;1.80;1.23;;;17.00;98.20;;;;;;5072134;28;20208;-66
2021/05/16 06:00:07;;;;;;;3.97;1.60;;;16.90;99.30;;;;;;5072080;28;20212;-66
2021/05/16 06:02:34;;;;;;;2.50;1.30;;;16.80;99.70;;;;;;5072257;28;20205;-65
2021/05/16 06:05:00;;;;;;;2.50;1.30;;;16.80;99.90;;;;;;5072201;28;20221;-65
2021/05/16 06:07:26;;;;;;;2.07;1.20;;;16.80;99.90;;;;;;5072117;28;20270;-66
2021/05/16 06:09:52;;;;;;;2.97;1.73;;;17.00;99.90;;;;;;5072335;28;20693;-66
2021/05/16 06:12:18;;;;;;;3.43;1.70;;;16.80;99.90;;;;;;5072006;28;20221;-66
2021/05/16 06:14:48;;;;;;;2.77;1.60;;;16.50;99.90;;;;;;5071896;28;20587;-66
2021/05/16 06:17:14;;;;;;;4.63;1.70;;;16.30;99.90;;;;;;5071803;28;20212;-66
2021/05/16 06:19:40;;;;;;;4.67;1.73;;;16.10;99.90;;;;;;5071730;28;20212;-66
2021/05/16 06:22:07;;;;;;;6.63;3.73;;;15.90;99.90;;;;;;5071370;28;20204;-66
2021/05/16 06:24:33;;;;;;;2.93;0.93;;;15.60;99.90;;;;;;5071256;28;20221;-66
2021/05/16 06:27:00;;;;;;;4.47;1.83;;;15.30;99.90;;;;;;5071361;28;20208;-66
2021/05/16 06:29:26;;;;;;;3.77;1.40;;;15.30;99.90;;;;;;5071270;28;20208;-66
2021/05/16 06:31:53;;;;;;;3.93;1.33;;;15.20;99.90;;;;;;5071283;28;20233;-66
2021/05/16 06:34:19;;;;;;;5.23;2.20;;;15.40;99.90;;;;;;5071057;28;20229;-66
2021/05/16 06:36:45;;;;;;;2.40;1.10;;;16.00;99.90;;;;;;5071536;28;20285;-66
2021/05/16 06:39:12;;;;;;;1.03;0.63;;;16.70;99.90;;;;;;5071070;28;20205;-66
2021/05/16 06:41:38;;;;;;;1.33;0.90;;;18.50;99.90;;;;;;5071222;28;20221;-66
2021/05/16 06:44:04;;;;;;;3.07;1.00;;;20.00;96.90;;;;;;5071443;28;20220;-66
2021/05/16 06:46:31;;;;;;;3.33;1.67;;;20.40;94.50;;;;;;5071645;28;20205;-66
2021/05/16 06:48:58;;;;;;;1.55;0.70;;;21.10;94.80;;;;;;5071196;28;20212;-66
2021/05/16 06:51:25;;;;;;;2.78;1.77;;;22.90;90.40;;;;;;5071514;28;20232;-66
2021/05/16 06:53:51;;;;;;;3.95;0.90;;;24.90;84.00;;;;;;5070918;28;20783;-66
2021/05/16 06:56:17;;;;;;;2.10;1.30;;;26.80;73.80;;;;;;5071788;28;20213;-66
2021/05/16 06:58:43;;;;;;;1.73;0.93;;;28.40;66.50;;;;;;5072005;28;20209;-66
2021/05/16 07:01:10;;;;;;;4.75;2.20;;;30.10;61.90;;;;;;5074853;28;20209;-66
2021/05/16 07:03:38;;;;;;;1.83;1.10;;;30.90;55.60;;;;;;5075574;28;20232;-67
2021/05/16 07:06:05;;;;;;;2.50;1.30;;;31.50;53.90;;;;;;5075742;28;20215;-67
2021/05/16 07:08:33;;;;;;;4.55;2.58;;;32.10;50.50;;;;;;5074727;28;20680;-66
2021/05/16 07:10:59;;;;;;;2.50;1.48;;;32.20;50.40;;;;;;5075244;28;20299;-68
2021/05/16 07:13:26;;;;;;;4.55;1.52;;;32.20;49.90;;;;;;5074679;28;20239;-65
2021/05/16 07:15:52;;;;;;;2.63;1.15;;;32.10;48.60;;;;;;5074848;28;20215;-68
2021/05/16 07:18:18;;;;;;;4.60;2.08;;;31.30;49.40;;;;;;5074470;28;20794;-66
2021/05/16 07:20:44;;;;;;;2.95;1.20;;;30.00;51.40;;;;;;5074641;28;20479;-65
2021/05/16 07:23:12;;;;;;;2.03;1.33;;;28.40;53.60;;;;;;5074522;28;20216;-65
2021/05/16 07:25:38;;;;;;;1.67;1.00;;;27.20;55.10;;;;;;5074288;28;20208;-65
2021/05/16 07:28:05;;;;;;;4.13;1.73;;;26.00;56.90;;;;;;5074387;28;20201;-65
2021/05/16 07:30:31;;;;;;;2.20;1.20;;;25.00;60.00;;;;;;5074497;28;20212;-65
2021/05/16 07:32:57;;;;;;;2.83;1.40;;;24.20;61.80;;;;;;5074113;28;20251;-66
2021/05/16 07:35:23;;;;;;;3.45;1.38;;;23.40;64.80;;;;;;5074272;28;20209;-65
2021/05/16 07:37:50;;;;;;;3.13;1.20;;;22.90;66.50;;;;;;5074230;28;20731;-65
2021/05/16 07:40:17;;;;;;;2.40;1.55;;;22.70;68.20;;;;;;5075017;28;20201;-66
2021/05/16 07:42:43;;;;;;;3.10;1.45;;;22.70;68.20;;;;;;5075200;28;20290;-66
2021/05/16 07:45:11;;;;;;;2.15;1.25;;;22.80;68.60;;;;;;5074663;28;20645;-64
2021/05/16 07:47:38;;;;;;;2.78;1.35;;;23.10;66.90;;;;;;5073733;28;20208;-64
2021/05/16 07:50:06;;;;;;;2.30;0.82;;;23.10;66.10;;;;;;5074717;28;20208;-64
2021/05/16 07:52:32;;;;;;;3.22;1.30;;;22.90;67.60;;;;;;5077019;28;20252;-66
2021/05/16 07:54:58;;;;;;;2.75;1.40;;;22.40;67.50;;;;;;5075360;28;20241;-66
2021/05/16 07:57:25;;;;;;;2.95;0.90;;;22.20;68.40;;;;;;5075430;28;20213;-65
2021/05/16 07:59:52;;;;;;;5.38;1.75;;;21.90;69.90;;;;;;5075011;28;20463;-65
2021/05/16 08:02:19;;;;;;;5.28;1.52;;;22.00;69.50;;;;;;5074856;28;20201;-66
2021/05/16 08:04:46;;;;;;;5.05;2.08;;;22.10;69.80;;;;;;5073633;28;20611;-66
2021/05/16 08:07:12;;;;;;;3.90;1.50;;;22.30;69.30;;;;;;5073556;28;20262;-65
2021/05/16 08:09:38;;;;;;;2.10;1.10;;;22.50;67.90;;;;;;5073974;28;20592;-65
2021/05/16 08:12:05;;;;;;;5.15;1.55;;;22.40;67.20;;;;;;5073753;28;20232;-66
2021/05/16 08:14:32;;;;;;;3.65;1.05;;;22.30;68.00;;;;;;5073226;28;20236;-64
2021/05/16 08:16:58;;;;;;;2.75;0.90;;;23.30;66.40;;;;;;5073316;28;20200;-65
2021/05/16 08:19:24;;;;;;;2.50;0.70;;;25.20;62.10;;;;;;5072962;28;20642;-65
2021/05/16 08:21:50;;;;;;;3.13;1.23;;;26.10;59.40;;;;;;5073549;28;20209;-64
2021/05/16 08:24:17;;;;;;;2.97;1.17;;;25.90;56.10;;;;;;5072498;28;20229;-63
2021/05/16 08:26:43;;;;;;;3.13;1.48;;;25.30;57.00;;;;;;5072518;28;20216;-63
2021/05/16 08:29:09;;;;;;;1.77;0.68;;;24.90;58.50;;;;;;5072642;28;20209;-64
2021/05/16 08:31:36;;;;;;;2.85;0.90;;;24.70;58.70;;;;;;5072636;28;20228;-64
2021/05/16 08:34:03;;;;;;;3.92;1.40;;;24.50;59.30;;;;;;5072270;28;20241;-64
2021/05/16 08:36:32;;;;;;;3.83;1.50;;;24.10;59.70;;;;;;5072577;28;20205;-64
2021/05/16 08:38:58;;;;;;;2.17;1.30;;;23.50;60.80;;;;;;5072524;28;20588;-64
2021/05/16 08:41:24;;;;;;;3.55;1.15;;;22.80;62.10;;;;;;5072434;28;20205;-64
2021/05/16 08:43:51;;;;;;;5.20;1.10;;;22.40;64.10;;;;;;5072581;28;20576;-64
2021/05/16 08:46:18;;;;;;;1.70;1.00;;;22.40;65.00;;;;;;5072563;28;20214;-65
2021/05/16 08:48:45;;;;;;;2.13;1.20;;;22.50;64.40;;;;;;5072257;28;20689;-64
2021/05/16 08:51:11;;;;;;;2.05;0.93;;;22.50;64.50;;;;;;5072303;28;20266;-64
2021/05/16 08:53:37;;;;;;;2.78;1.20;;;22.30;64.80;;;;;;5072463;28;20232;-64
2021/05/16 08:56:05;;;;;;;1.83;0.77;;;22.00;65.60;;;;;;5072604;28;20238;-64
2021/05/16 08:58:32;;;;;;;2.03;1.10;;;21.70;66.30;;;;;;5072321;28;20205;-64
2021/05/16 09:00:58;;;;;;;2.55;1.25;;;21.30;67.40;;;;;;5072097;28;20205;-64
2021/05/16 09:03:25;;;;;;;1.17;0.73;;;21.10;66.70;;;;;;5072266;28;20224;-64
2021/05/16 09:05:53;;;;;;;2.13;0.80;;;20.60;66.50;;;;;;5072371;28;20349;-64
2021/05/16 09:08:22;;;;;;;1.83;0.80;;;20.20;69.10;;;;;;5071959;28;20201;-64
2021/05/16 09:10:52;;;;;;;2.80;1.02;;;20.00;70.40;;;;;;5072155;28;20240;-64
2021/05/16 09:13:20;;;;;;;2.08;1.20;;;19.90;69.40;;;;;;5071614;28;20240;-64
2021/05/16 09:16:07;;;;;;;4.63;1.80;;;19.70;70.10;;;;;;5071398;28;20583;-64
2021/05/16 09:18:45;;;;;;;2.70;1.00;;;19.50;71.60;;;;;;5071644;28;20205;-64
2021/05/16 09:21:28;;;;;;;6.30;1.98;;;19.30;69.90;;;;;;5071787;28;20358;-64
2021/05/16 09:24:10;;;;;;;2.97;0.98;;;19.20;70.40;;;;;;5070842;28;20315;-64
2021/05/16 09:26:49;;;;;;;4.70;1.15;;;19.40;70.50;;;;;;5071671;28;20675;-64
2021/05/16 09:29:20;;;;;;;4.40;1.33;;;20.00;70.00;;;;;;5071546;28;20201;-64
2021/05/16 09:31:47;;;;;;;3.08;1.17;;;20.70;68.10;;;;;;5071269;28;20483;-64
2021/05/16 09:34:14;;;;;;;2.90;1.05;;;20.90;67.20;;;;;;5093672;22;20722;-61
2021/05/16 09:36:45;;;;;;;2.50;1.02;;;21.00;67.30;;;;;;5071296;28;20204;-61
2021/05/16 09:39:12;;;;;;;4.45;1.02;;;21.10;66.90;;;;;;5071146;28;20215;-61
2021/05/16 09:41:53;;;;;;;7.05;3.30;;;21.20;64.80;;;;;;5071177;28;20208;-61
2021/05/16 09:44:28;;;;;;;3.85;1.50;;;21.40;65.00;;;;;;5070913;28;20600;-60
2021/05/16 09:47:10;;;;;;;9.70;6.55;;;21.60;64.50;;;;;;5070924;28;20211;-60
2021/05/16 09:49:36;;;;;;;5.57;2.95;;;21.80;64.00;;;;;;5071128;28;20205;-61
2021/05/16 09:52:08;;;;;;;4.65;2.05;;;22.00;64.40;;;;;;5070983;28;20225;-60
2021/05/16 09:54:56;;;;;;;5.53;1.42;;;22.10;63.90;;;;;;5070710;28;20229;-60
2021/05/16 09:57:23;;;;;;;3.65;1.40;;;22.10;60.90;;;;;;5071062;28;20231;-59
2021/05/16 09:59:49;;;;;;;2.72;1.00;;;22.50;60.40;;;;;;5071102;28;20201;-58
2021/05/16 10:02:16;;;;;;;3.38;1.20;;;22.70;59.70;;;;;;5071035;28;20208;-60
2021/05/16 10:04:44;;;;;;;5.32;1.50;;;22.90;60.20;;;;;;5070806;28;20281;-59
2021/05/16 10:07:11;;;;;;;3.78;1.17;;;23.00;59.00;;;;;;5071022;28;20209;-60
2021/05/16 10:09:37;;;;;;;4.43;1.67;;;23.00;56.70;;;;;;5070927;28;20212;-60
2021/05/16 10:12:05;;;;;;;3.55;1.30;;;23.00;57.20;;;;;;5070830;28;20227;-60
2021/05/16 10:14:32;;;;;;;4.13;1.60;;;22.90;56.60;;;;;;5070039;28;20493;-59
2021/05/16 10:16:59;;;;;;;5.60;1.60;;;22.50;57.60;;;;;;5070940;28;20489;-59
2021/05/16 10:19:32;;;;;;;3.40;1.50;;;22.20;58.70;;;;;;5071072;28;20701;-59
2021/05/16 10:22:04;;;;;;;6.53;1.27;;;22.20;59.80;;;;;;5071003;28;20212;-59
2021/05/16 10:24:38;;;;;;;6.05;1.50;;;21.90;58.10;;;;;;5070602;28;20282;-60
2021/05/16 10:27:22;;;;;;;5.13;1.55;;;21.80;59.10;;;;;;5070654;28;20663;-59
2021/05/16 10:29:54;;;;;;;3.25;1.25;;;21.60;58.80;;;;;;5070497;28;20291;-59
2021/05/16 10:32:26;;;;;;;5.18;1.35;;;21.50;58.70;;;;;;5070325;28;20763;-59
2021/05/16 10:34:57;;;;;;;4.45;1.40;;;21.30;58.90;;;;;;5071429;28;20675;-60
2021/05/16 10:37:46;;;;;;;3.67;1.48;;;21.30;58.30;;;;;;5074583;28;20205;-59
2021/05/16 10:40:31;;;;;;;3.47;1.30;;;21.60;58.20;;;;;;5069000;28;20209;-59
2021/05/16 10:42:59;;;;;;;5.28;2.10;;;22.10;58.00;;;;;;5074525;28;20213;-59
2021/05/16 10:45:39;;;;;;;7.68;3.05;;;22.60;57.60;;;;;;5074200;28;20720;-59
2021/05/16 10:48:07;;;;;;;5.68;1.67;;;22.70;56.10;;;;;;5074182;28;20692;-59
2021/05/16 10:50:50;;;;;;;4.93;1.20;;;22.80;55.90;;;;;;5074475;28;20204;-59
2021/05/16 10:53:29;;;;;;;3.75;1.15;;;23.00;55.40;;;;;;5072046;28;20274;-59
2021/05/16 10:56:12;;;;;;;2.25;1.00;;;23.30;54.70;;;;;;5074593;28;20650;-59
2021/05/16 10:58:54;;;;;;;5.28;1.33;;;23.50;54.20;;;;;;5074793;28;20235;-59
2021/05/16 11:01:31;;;;;;;4.80;1.30;;;23.70;53.70;;;;;;5074384;28;20232;-60
2021/05/16 11:04:00;;;;;;;4.30;1.40;;;23.60;54.20;;;;;;5073941;28;20247;-60
2021/05/16 11:06:59;;;;;;;4.20;1.33;;;23.60;54.60;;;;;;5073923;28;20742;-59
2021/05/16 11:09:34;;;;;;;2.70;1.30;;;23.50;55.20;;;;;;5074169;28;20296;-61
2021/05/16 11:12:03;;;;;;;3.10;1.20;;;23.50;55.80;;;;;;5073956;28;20446;-60
2021/05/16 11:14:35;;;;;;;4.13;1.58;;;23.70;55.20;;;;;;5073718;28;20221;-60
2021/05/16 11:17:03;;;;;;;4.78;1.40;;;23.80;55.50;;;;;;5073960;28;20209;-60
2021/05/16 11:19:31;;;;;;;3.67;1.35;;;24.00;54.60;;;;;;5074005;28;20282;-61
2021/05/16 11:21:58;;;;;;;4.25;1.33;;;24.30;53.10;;;;;;5074075;28;20208;-61
2021/05/16 11:24:41;;;;;;;5.90;1.60;;;24.50;53.80;;;;;;5073879;28;20294;-60
2021/05/16 11:27:26;;;;;;;3.05;1.10;;;24.70;54.70;;;;;;5073747;28;20696;-61
2021/05/16 11:29:54;;;;;;;2.65;0.88;;;24.70;54.40;;;;;;5073881;28;20205;-62
2021/05/16 11:32:28;;;;;;;4.50;1.15;;;24.30;52.80;;;;;;5074375;28;20270;-62
2021/05/16 11:35:18;;;;;;;2.83;1.15;;;24.20;50.30;;;;;;5073728;28;20297;-60
2021/05/16 11:37:48;;;;;;;6.00;1.25;;;24.00;51.50;;;;;;5073881;28;20212;-63
2021/05/16 11:40:25;;;;;;;2.92;0.75;;;23.90;51.00;;;;;;5074492;28;20228;-60
2021/05/16 11:43:04;;;;;;;4.47;1.00;;;23.90;51.00;;;;;;5073662;28;20223;-60
2021/05/16 11:45:34;;;;;;;3.47;1.20;;;24.00;51.00;;;;;;5069551;28;20529;-62
2021/05/16 11:48:00;;;;;;;3.78;1.95;;;24.20;51.00;;;;;;5052840;28;20220;-63
2021/05/16 11:50:39;;;;;;;5.00;1.00;;;24.20;50.40;;;;;;5053475;28;20231;-63
2021/05/16 11:53:06;;;;;;;4.82;1.40;;;24.20;50.60;;;;;;5053367;28;20256;-61
2021/05/16 11:55:32;;;;;;;2.88;1.45;;;23.90;50.30;;;;;;5053353;28;20290;-62
2021/05/16 11:58:00;;;;;;;3.22;1.48;;;23.90;50.90;;;;;;5053191;28;20209;-61
2021/05/16 12:00:29;;;;;;;5.68;1.27;;;24.10;50.60;;;;;;5053337;28;20283;-61
2021/05/16 12:03:11;;;;;;;5.70;1.23;;;24.20;50.90;;;;;;5053584;28;20270;-61
2021/05/16 12:05:37;;;;;;;2.35;0.85;;;24.30;49.80;;;;;;5053156;28;20206;-61
2021/05/16 12:08:23;;;;;;;2.00;0.77;;;24.60;48.20;;;;;;5053191;28;20540;-63
2021/05/16 12:11:07;;;;;;;3.42;1.20;;;24.80;48.00;;;;;;5052825;28;20216;-64
2021/05/16 12:13:34;;;;;;;4.47;1.27;;;24.80;48.90;;;;;;5052859;28;20233;-62
2021/05/16 12:16:18;;;;;;;6.00;3.60;;;24.80;48.20;;;;;;5052448;28;20700;-63
2021/05/16 12:18:45;;;;;;;5.82;2.55;;;24.60;49.30;;;;;;5053303;28;20216;-60
2021/05/16 12:21:13;;;;;;;4.53;1.10;;;24.50;49.50;;;;;;5052685;28;20296;-60
2021/05/16 12:23:40;;;;;;;2.03;0.90;;;24.50;47.70;;;;;;5052193;28;20230;-63
2021/05/16 12:26:07;;;;;;;2.20;0.77;;;24.20;48.10;;;;;;5052946;28;20262;-60
2021/05/16 12:28:34;;;;;;;3.58;1.20;;;24.00;48.50;;;;;;5052433;28;20213;-59
2021/05/16 12:31:03;;;;;;;2.65;1.00;;;23.80;49.50;;;;;;5052958;28;20213;-62
2021/05/16 12:33:30;;;;;;;3.85;0.90;;;23.60;48.20;;;;;;5052345;28;20225;-62
2021/05/16 12:35:59;;;;;;;2.67;1.00;;;23.50;49.60;;;;;;5052494;28;20708;-62
2021/05/16 12:38:25;;;;;;;3.58;1.40;;;23.50;48.90;;;;;;5052440;28;20206;-63
2021/05/16 12:40:51;;;;;;;1.77;0.85;;;23.50;51.30;;;;;;5052335;28;20209;-62
2021/05/16 12:43:20;;;;;;;3.05;1.00;;;23.50;50.80;;;;;;5052382;28;20202;-62
2021/05/16 12:45:46;;;;;;;2.60;0.90;;;23.70;50.80;;;;;;5052041;28;20206;-62
2021/05/16 12:48:19;;;;;;;2.53;1.45;;;23.80;50.20;;;;;;5052033;28;20217;-60
2021/05/16 12:50:48;;;;;;;3.97;1.17;;;24.00;49.80;;;;;;5052071;28;20581;-61
2021/05/16 12:53:26;;;;;;;2.53;0.95;;;24.10;49.50;;;;;;5052501;28;20237;-59